Time;durP1;ratioP1;P1;durP2;ratioP2;P2;SDS_P1;SDS_P2;PMS_P1;PMS_P2;Temp;Humidity;BMP_temperature;BMP_pressure;BME280_temperature;BME280_humidity;BME280_pressure;Samples;Min_cycle;Max_cycle;Signal;HPM_P1;HPM_P2
2021/10/29 00:01:39;;;;;;;14.13;8.00;;;;;;;;;;10500125;28;20473;-79
2021/10/29 00:06:40;;;;;;;32.40;7.93;;;;;;;;;;10500472;28;20880;-80
2021/10/29 00:11:40;;;;;;;11.70;7.18;;;;;;;;;;10500043;28;20457;-79
2021/10/29 00:16:41;;;;;;;12.88;7.47;;;;;;;;;;10499401;28;20468;-79
2021/10/29 00:21:41;;;;;;;12.83;7.73;;;;;;;;;;10499115;28;20028;-79
2021/10/29 00:26:42;;;;;;;12.90;7.20;;;;;;;;;;10499682;28;20883;-79
2021/10/29 00:31:43;;;;;;;11.40;7.07;;;;;;;;;;10499245;28;20331;-79
2021/10/29 00:36:43;;;;;;;15.07;6.93;;;;;;;;;;10498835;28;20029;-80
2021/10/29 00:41:44;;;;;;;11.88;7.00;;;;;;;;;;10498168;28;20457;-79
2021/10/29 00:46:44;;;;;;;11.88;6.53;;;;;;;;;;10498781;28;20040;-80
2021/10/29 00:51:45;;;;;;;11.23;6.70;;;;;;;;;;10498820;28;20070;-79
2021/10/29 00:56:47;;;;;;;13.40;6.55;;;;;;;;;;10498246;28;20450;-80
2021/10/29 01:01:48;;;;;;;11.90;6.72;;;;;;;;;;10500012;28;20093;-79
2021/10/29 01:06:48;;;;;;;10.43;6.40;;;;;;;;;;10499023;28;20166;-80
2021/10/29 01:11:49;;;;;;;12.77;6.75;;;;;;;;;;10498046;28;20033;-80
2021/10/29 01:16:49;;;;;;;15.88;6.80;;;;;;;;;;10497910;28;20035;-80
2021/10/29 01:21:50;;;;;;;10.00;6.47;;;;;;;;;;10497943;28;20043;-79
2021/10/29 01:26:50;;;;;;;10.90;6.30;;;;;;;;;;10497756;28;20454;-80
2021/10/29 01:31:51;;;;;;;15.88;6.38;;;;;;;;;;10497721;28;20347;-79
2021/10/29 01:36:51;;;;;;;9.73;5.93;;;;;;;;;;10497863;28;20123;-79
2021/10/29 01:41:51;;;;;;;9.85;5.95;;;;;;;;;;10497678;28;20111;-79
2021/10/29 01:46:52;;;;;;;16.93;5.90;;;;;;;;;;10497792;28;20071;-79
2021/10/29 01:51:53;;;;;;;13.32;6.30;;;;;;;;;;10494596;28;20444;-79
2021/10/29 01:56:56;;;;;;;12.35;6.30;;;;;;;;;;10519824;28;20417;-79
2021/10/29 02:01:56;;;;;;;11.38;6.07;;;;;;;;;;10501194;28;20024;-79
2021/10/29 02:06:57;;;;;;;9.33;6.03;;;;;;;;;;10495507;28;20021;-79
2021/10/29 02:11:57;;;;;;;9.73;6.37;;;;;;;;;;10496711;28;21004;-79
2021/10/29 02:16:57;;;;;;;12.80;6.10;;;;;;;;;;10497728;28;20462;-79
2021/10/29 02:21:58;;;;;;;8.00;5.00;;;;;;;;;;10504411;28;20454;-79
2021/10/29 02:26:59;;;;;;;8.07;5.45;;;;;;;;;;10504030;28;20807;-79
2021/10/29 02:32:00;;;;;;;8.27;5.20;;;;;;;;;;10503581;28;20028;-80
2021/10/29 02:37:00;;;;;;;9.30;5.68;;;;;;;;;;10503673;28;20029;-80
2021/10/29 02:42:04;;;;;;;8.10;5.37;;;;;;;;;;10503793;28;20131;-79
2021/10/29 02:47:04;;;;;;;9.38;5.53;;;;;;;;;;10503676;28;20478;-79
2021/10/29 02:52:05;;;;;;;8.27;5.13;;;;;;;;;;10503615;28;20021;-79
2021/10/29 02:57:06;;;;;;;9.43;5.55;;;;;;;;;;10503107;28;21051;-79
2021/10/29 03:02:06;;;;;;;6.37;4.80;;;;;;;;;;10503320;28;20115;-79
2021/10/29 03:07:07;;;;;;;6.30;4.75;;;;;;;;;;10502016;28;20461;-79
2021/10/29 03:12:07;;;;;;;10.50;5.53;;;;;;;;;;10502538;28;20505;-80
2021/10/29 03:17:08;;;;;;;7.32;4.57;;;;;;;;;;10502417;28;20453;-79
2021/10/29 03:22:08;;;;;;;11.20;5.32;;;;;;;;;;10502637;28;20493;-79
2021/10/29 03:27:09;;;;;;;6.60;5.18;;;;;;;;;;10501597;28;20024;-79
2021/10/29 03:32:09;;;;;;;9.85;4.45;;;;;;;;;;10500677;28;20024;-80
2021/10/29 03:48:00;;;;;;;7.22;4.65;;;;;;;;;;10413103;28;20049;-79
2021/10/29 03:53:24;;;;;;;10.82;5.00;;;;;;;;;;10413483;28;20049;-79
2021/10/29 03:58:21;;;;;;;10.73;4.65;;;;;;;;;;10409841;28;21596;-79
2021/10/29 04:03:21;;;;;;;5.93;4.87;;;;;;;;;;10408959;28;20045;-80
2021/10/29 04:08:22;;;;;;;6.65;4.45;;;;;;;;;;10409187;28;20530;-80
2021/10/29 04:13:22;;;;;;;5.67;4.40;;;;;;;;;;10460972;28;20036;-80
2021/10/29 04:18:24;;;;;;;5.80;4.60;;;;;;;;;;10487379;28;20549;-80
2021/10/29 04:23:24;;;;;;;6.10;4.50;;;;;;;;;;10485027;28;20029;-81
2021/10/29 04:28:26;;;;;;;6.20;4.45;;;;;;;;;;10504803;28;20013;-81
2021/10/29 04:33:27;;;;;;;7.03;4.05;;;;;;;;;;10493205;28;20032;-81
2021/10/29 04:38:27;;;;;;;5.57;4.27;;;;;;;;;;10497982;28;20111;-82
2021/10/29 04:43:28;;;;;;;5.83;4.37;;;;;;;;;;10484546;28;20453;-80
2021/10/29 04:48:28;;;;;;;6.47;4.40;;;;;;;;;;10492028;28;20028;-80
2021/10/29 04:53:29;;;;;;;5.88;4.00;;;;;;;;;;10497944;28;20039;-80
2021/10/29 04:58:30;;;;;;;8.07;4.13;;;;;;;;;;10497876;28;20028;-81
2021/10/29 05:03:30;;;;;;;5.53;4.00;;;;;;;;;;10502953;28;20122;-81
2021/10/29 05:08:31;;;;;;;7.50;4.63;;;;;;;;;;10499647;28;20021;-82
2021/10/29 05:13:31;;;;;;;6.65;4.70;;;;;;;;;;10531478;28;21050;-82
2021/10/29 05:18:32;;;;;;;8.30;5.88;;;;;;;;;;10506747;28;20721;-83
2021/10/29 05:23:32;;;;;;;6.60;5.30;;;;;;;;;;10500017;28;20029;-84
2021/10/29 05:28:33;;;;;;;6.43;5.37;;;;;;;;;;10498461;28;20107;-83
2021/10/29 05:33:34;;;;;;;5.60;4.15;;;;;;;;;;10496584;28;20031;-82
2021/10/29 05:38:35;;;;;;;4.68;4.00;;;;;;;;;;10487606;28;20058;-83
2021/10/29 05:43:35;;;;;;;5.40;4.40;;;;;;;;;;10495479;28;20502;-82
2021/10/29 05:48:38;;;;;;;4.07;3.67;;;;;;;;;;10497167;28;20107;-82
2021/10/29 05:53:52;;;;;;;5.43;4.32;;;;;;;;;;10500131;28;20040;-82
2021/10/29 05:58:52;;;;;;;17.08;4.45;;;;;;;;;;10496297;28;20541;-81
2021/10/29 06:03:53;;;;;;;6.37;4.20;;;;;;;;;;10491296;28;20115;-81
2021/10/29 06:08:53;;;;;;;8.80;4.77;;;;;;;;;;10499220;28;20469;-80
2021/10/29 06:13:54;;;;;;;6.38;4.68;;;;;;;;;;10489729;28;20101;-83
2021/10/29 06:18:55;;;;;;;18.98;5.70;;;;;;;;;;10502928;28;20474;-80
2021/10/29 06:24:07;;;;;;;8.13;4.45;;;;;;;;;;10500000;28;20039;-83
2021/10/29 06:29:07;;;;;;;18.52;5.05;;;;;;;;;;10493539;28;20028;-83
2021/10/29 06:34:10;;;;;;;10.55;4.60;;;;;;;;;;10503287;28;20166;-83
2021/10/29 06:39:11;;;;;;;8.27;3.95;;;;;;;;;;10503965;28;20025;-83
2021/10/29 06:52:04;;;;;;;;;;;;;;;;;;10503221;28;20044;-83
2021/10/29 07:41:59;;;;;;;;;;;;;;;;;;10501318;28;20312;-83
2021/10/29 07:46:59;;;;;;;7.88;4.20;;;;;;;;;;10486420;22;19921;-82
2021/10/29 07:52:00;;;;;;;7.15;4.10;;;;;;;;;;10459454;28;20032;-83
2021/10/29 07:57:00;;;;;;;10.57;4.03;;;;;;;;;;10458739;28;20467;-82
2021/10/29 08:02:01;;;;;;;10.20;4.30;;;;;;;;;;10458539;28;20033;-82
2021/10/29 08:07:01;;;;;;;10.77;4.10;;;;;;;;;;10459387;28;20031;-82
2021/10/29 08:12:02;;;;;;;6.43;3.45;;;;;;;;;;10459164;28;20426;-83
2021/10/29 08:17:03;;;;;;;6.30;3.88;;;;;;;;;;10476105;28;20474;-84
2021/10/29 08:22:04;;;;;;;8.13;3.90;;;;;;;;;;10492837;28;20036;-84
2021/10/29 08:27:06;;;;;;;8.05;4.47;;;;;;;;;;10482689;28;20066;-83
2021/10/29 08:32:07;;;;;;;10.40;3.92;;;;;;;;;;10495310;28;20035;-83
2021/10/29 08:37:08;;;;;;;8.60;4.40;;;;;;;;;;10490637;28;20073;-83
2021/10/29 08:42:09;;;;;;;6.70;4.00;;;;;;;;;;10496321;28;20028;-83
2021/10/29 08:47:10;;;;;;;7.90;4.15;;;;;;;;;;10499926;28;20055;-84
2021/10/29 08:52:13;;;;;;;6.40;4.05;;;;;;;;;;10498219;28;20031;-83
2021/10/29 08:57:13;;;;;;;7.35;4.82;;;;;;;;;;10497704;28;20044;-83
2021/10/29 09:33:48;;;;;;;8.20;4.40;;;;;;;;;;10455929;28;20029;-83
2021/10/29 09:38:56;;;;;;;9.00;4.57;;;;;;;;;;10456216;28;20025;-83
2021/10/29 09:44:15;;;;;;;6.10;4.93;;;;;;;;;;10454995;28;20499;-88
2021/10/29 09:49:24;;;;;;;7.78;4.40;;;;;;;;;;10483033;28;20426;-89
2021/10/29 09:54:36;;;;;;;7.97;4.57;;;;;;;;;;10468628;28;20466;-89
2021/10/29 09:59:37;;;;;;;11.38;5.32;;;;;;;;;;10483946;28;20034;-87
2021/10/29 10:04:37;;;;;;;7.15;4.57;;;;;;;;;;10455337;28;20029;-87
2021/10/29 10:09:39;;;;;;;13.40;5.57;;;;;;;;;;10454994;28;20032;-87
2021/10/29 10:14:39;;;;;;;7.53;5.07;;;;;;;;;;10454380;28;20091;-87
2021/10/29 10:19:40;;;;;;;8.13;5.32;;;;;;;;;;10454226;28;20029;-87
2021/10/29 10:24:41;;;;;;;7.73;4.80;;;;;;;;;;10473708;28;20067;-87
2021/10/29 10:50:47;;;;;;;8.63;5.15;;;;;;;;;;10465359;28;20374;-87
2021/10/29 11:12:34;;;;;;;8.63;5.60;;;;;;;;;;10452594;28;20045;-87
2021/10/29 11:18:02;;;;;;;9.25;5.25;;;;;;;;;;10463123;28;20478;-86
2021/10/29 11:23:09;;;;;;;5.65;4.60;;;;;;;;;;10489429;28;20044;-86
2021/10/29 11:28:11;;;;;;;7.05;5.55;;;;;;;;;;10461776;28;20029;-86
2021/10/29 11:33:13;;;;;;;6.97;4.90;;;;;;;;;;10494007;28;20447;-88
2021/10/29 11:38:14;;;;;;;7.05;5.00;;;;;;;;;;10494284;28;20082;-88
2021/10/29 11:43:23;;;;;;;6.10;5.22;;;;;;;;;;10498311;28;20032;-87
2021/10/29 11:48:24;;;;;;;7.72;5.30;;;;;;;;;;10498368;28;20112;-86
2021/10/29 11:53:24;;;;;;;7.72;5.70;;;;;;;;;;10499220;28;20056;-85
2021/10/29 11:58:46;;;;;;;9.17;5.30;;;;;;;;;;10500259;28;20036;-86
2021/10/29 12:09:22;;;;;;;;;;;;;;;;;;10484510;28;20037;-85
2021/10/29 12:14:30;;;;;;;11.27;6.00;;;;;;;;;;10472787;28;19909;-84
2021/10/29 12:19:31;;;;;;;8.97;5.80;;;;;;;;;;10471511;28;20029;-85
2021/10/29 12:24:34;;;;;;;8.48;5.72;;;;;;;;;;10469270;28;20025;-85
2021/10/29 12:29:35;;;;;;;9.45;5.72;;;;;;;;;;10476716;28;20025;-85
2021/10/29 13:01:27;;;;;;;6.47;5.70;;;;;;;;;;10487532;28;19917;-81
2021/10/29 13:06:32;;;;;;;9.07;5.55;;;;;;;;;;10485995;28;20029;-82
2021/10/29 13:11:34;;;;;;;13.75;5.97;;;;;;;;;;10462890;28;20462;-82
2021/10/29 13:16:35;;;;;;;10.57;5.65;;;;;;;;;;10475564;28;20028;-83
2021/10/29 13:53:49;;;;;;;9.68;5.43;;;;;;;;;;10489642;28;20029;-81
2021/10/29 14:30:25;;;;;;;16.60;5.87;;;;;;;;;;10468045;28;20032;-81
2021/10/29 14:35:28;;;;;;;22.17;6.82;;;;;;;;;;10499152;28;20441;-81
2021/10/29 15:16:47;;;;;;;24.67;7.72;;;;;;;;;;10460629;28;20383;-82
2021/10/29 15:42:50;;;;;;;16.25;6.80;;;;;;;;;;10474767;28;20455;-83
2021/10/29 15:48:13;;;;;;;18.80;6.68;;;;;;;;;;10459328;28;20053;-82
2021/10/29 15:53:14;;;;;;;14.93;6.38;;;;;;;;;;10460105;28;20432;-83
2021/10/29 16:03:35;;;;;;;12.38;6.47;;;;;;;;;;10458895;28;20071;-82
2021/10/29 16:19:13;;;;;;;13.50;6.78;;;;;;;;;;10460192;28;20041;-82
2021/10/29 16:24:14;;;;;;;11.10;6.23;;;;;;;;;;10474410;28;20024;-83
2021/10/29 16:29:19;;;;;;;12.25;6.65;;;;;;;;;;10487367;28;20442;-82
2021/10/29 16:34:19;;;;;;;13.00;6.47;;;;;;;;;;10498811;28;20035;-82
2021/10/29 16:39:20;;;;;;;13.45;6.43;;;;;;;;;;10499155;28;20103;-82
2021/10/29 16:44:20;;;;;;;15.17;6.37;;;;;;;;;;10498827;28;20052;-82
2021/10/29 16:49:23;;;;;;;14.50;5.97;;;;;;;;;;10498612;28;20513;-82
2021/10/29 16:54:23;;;;;;;11.45;6.22;;;;;;;;;;10499409;28;20101;-82
2021/10/29 16:59:25;;;;;;;12.20;6.50;;;;;;;;;;10497283;28;20089;-82
2021/10/29 17:04:26;;;;;;;16.35;6.80;;;;;;;;;;10498362;28;20032;-81
2021/10/29 17:09:27;;;;;;;49.92;9.02;;;;;;;;;;10477424;28;20133;-84
2021/10/29 17:14:28;;;;;;;28.17;7.85;;;;;;;;;;10456826;28;20112;-84
2021/10/29 17:19:28;;;;;;;24.67;7.47;;;;;;;;;;10488532;28;20068;-84
2021/10/29 17:24:29;;;;;;;47.80;8.85;;;;;;;;;;10497500;28;20426;-85
2021/10/29 17:29:33;;;;;;;27.83;7.37;;;;;;;;;;10494596;28;20044;-83
2021/10/29 17:34:33;;;;;;;45.25;7.95;;;;;;;;;;10496176;28;20469;-82
2021/10/29 17:39:34;;;;;;;25.57;6.83;;;;;;;;;;10494896;28;20493;-84
2021/10/29 17:44:35;;;;;;;25.65;6.25;;;;;;;;;;10496377;28;20482;-84
2021/10/29 17:49:37;;;;;;;24.20;7.20;;;;;;;;;;10500848;28;20420;-85
2021/10/29 17:54:41;;;;;;;16.23;7.25;;;;;;;;;;10504413;28;20478;-83
2021/10/29 17:59:41;;;;;;;14.57;6.45;;;;;;;;;;10487014;28;20108;-84
2021/10/29 18:04:42;;;;;;;14.93;6.50;;;;;;;;;;10502968;28;20021;-85
2021/10/29 18:09:42;;;;;;;20.58;7.22;;;;;;;;;;10476445;28;20508;-85
2021/10/29 18:14:43;;;;;;;15.87;6.67;;;;;;;;;;10495702;28;20554;-84
2021/10/29 18:19:45;;;;;;;18.75;7.88;;;;;;;;;;10501980;28;20457;-83
2021/10/29 18:24:45;;;;;;;20.95;6.78;;;;;;;;;;10497003;28;20374;-83
2021/10/29 18:29:46;;;;;;;22.65;6.32;;;;;;;;;;10503826;28;20032;-83
2021/10/29 18:34:50;;;;;;;16.88;6.85;;;;;;;;;;10503783;28;20055;-83
2021/10/29 18:39:53;;;;;;;12.40;7.03;;;;;;;;;;10503874;28;20033;-85
2021/10/29 18:44:53;;;;;;;13.27;6.85;;;;;;;;;;10494754;28;20080;-85
2021/10/29 18:49:54;;;;;;;20.52;7.88;;;;;;;;;;10500764;28;20082;-85
2021/10/29 18:54:54;;;;;;;11.90;6.60;;;;;;;;;;10500654;28;20046;-85
2021/10/29 18:59:54;;;;;;;14.70;6.73;;;;;;;;;;10493394;28;20072;-83
2021/10/29 19:04:55;;;;;;;13.77;7.57;;;;;;;;;;10501026;28;20540;-84
2021/10/29 19:09:55;;;;;;;17.40;7.67;;;;;;;;;;10469997;28;20037;-84
2021/10/29 19:14:55;;;;;;;10.67;7.70;;;;;;;;;;10486248;28;20067;-85
2021/10/29 19:19:56;;;;;;;13.27;7.50;;;;;;;;;;10465802;28;20443;-84
2021/10/29 19:24:57;;;;;;;14.85;7.70;;;;;;;;;;10467075;28;20028;-84
2021/10/29 19:29:57;;;;;;;14.88;8.15;;;;;;;;;;10502121;28;20032;-84
2021/10/29 19:34:59;;;;;;;16.35;8.02;;;;;;;;;;10501532;28;20032;-84
2021/10/29 19:40:34;;;;;;;31.45;10.77;;;;;;;;;;10500484;28;20485;-86
2021/10/29 19:45:26;;;;;;;23.45;9.80;;;;;;;;;;10477338;23;20143;-86
2021/10/29 19:50:27;;;;;;;25.40;10.35;;;;;;;;;;10458289;28;20036;-86
2021/10/29 19:55:28;;;;;;;17.55;10.10;;;;;;;;;;10437693;28;20033;-86
2021/10/29 20:00:29;;;;;;;22.10;11.55;;;;;;;;;;10458797;28;20029;-85
2021/10/29 20:05:30;;;;;;;21.25;10.27;;;;;;;;;;10459299;28;20075;-85
2021/10/29 20:10:32;;;;;;;18.10;10.45;;;;;;;;;;10458595;28;20107;-86
2021/10/29 20:15:35;;;;;;;19.88;10.25;;;;;;;;;;10458728;28;20036;-85
2021/10/29 20:20:37;;;;;;;16.48;9.98;;;;;;;;;;10444813;28;20462;-85
2021/10/29 20:25:38;;;;;;;17.30;10.10;;;;;;;;;;10444604;28;20378;-85
2021/10/29 20:30:38;;;;;;;16.48;10.15;;;;;;;;;;10458202;28;20029;-85
2021/10/29 20:35:38;;;;;;;21.20;10.57;;;;;;;;;;10457738;28;20086;-86
2021/10/29 20:40:40;;;;;;;17.60;10.65;;;;;;;;;;10457897;28;20862;-86
2021/10/29 20:45:41;;;;;;;21.88;11.13;;;;;;;;;;10446981;28;20414;-86
2021/10/29 20:50:42;;;;;;;18.73;11.13;;;;;;;;;;10453691;28;20017;-85
2021/10/29 20:55:43;;;;;;;14.45;10.40;;;;;;;;;;10456770;28;20379;-85
2021/10/29 21:00:43;;;;;;;16.15;10.15;;;;;;;;;;10457416;28;20078;-85
2021/10/29 21:05:44;;;;;;;18.25;10.00;;;;;;;;;;10456904;28;20079;-85
2021/10/29 21:10:44;;;;;;;19.50;10.15;;;;;;;;;;10457725;28;20033;-86
2021/10/29 21:15:45;;;;;;;18.90;10.83;;;;;;;;;;10451349;28;20117;-86
2021/10/29 21:20:45;;;;;;;18.20;11.00;;;;;;;;;;10455689;28;20448;-85
2021/10/29 21:25:46;;;;;;;17.92;10.68;;;;;;;;;;10455529;28;20120;-85
2021/10/29 21:30:47;;;;;;;15.97;10.57;;;;;;;;;;10454928;28;20459;-85
2021/10/29 21:35:47;;;;;;;18.65;10.63;;;;;;;;;;10455740;28;20472;-84
2021/10/29 21:40:48;;;;;;;15.53;10.93;;;;;;;;;;10456387;28;20032;-85
2021/10/29 21:45:48;;;;;;;17.50;10.93;;;;;;;;;;10454362;28;20616;-85
2021/10/29 21:50:49;;;;;;;16.95;10.90;;;;;;;;;;10455973;28;20435;-85
2021/10/29 21:55:49;;;;;;;23.43;11.30;;;;;;;;;;10455303;28;20060;-85
2021/10/29 22:00:51;;;;;;;22.63;11.15;;;;;;;;;;10454550;28;20493;-85
2021/10/29 22:05:52;;;;;;;16.25;11.05;;;;;;;;;;10454876;28;20390;-85
2021/10/29 22:10:53;;;;;;;13.82;10.40;;;;;;;;;;10445398;28;20040;-84
2021/10/29 22:15:53;;;;;;;17.88;11.38;;;;;;;;;;10447783;28;20433;-85
2021/10/29 22:20:53;;;;;;;18.40;11.10;;;;;;;;;;10451961;28;20036;-83
2021/10/29 22:25:54;;;;;;;17.93;11.23;;;;;;;;;;10461260;28;20040;-83
2021/10/29 22:30:55;;;;;;;16.27;11.20;;;;;;;;;;10439424;28;20577;-84
2021/10/29 22:35:55;;;;;;;25.63;11.07;;;;;;;;;;10456335;28;20501;-82
2021/10/29 22:40:56;;;;;;;24.27;12.32;;;;;;;;;;10451219;28;20471;-81
2021/10/29 22:45:56;;;;;;;28.77;12.77;;;;;;;;;;10451556;28;20048;-82
2021/10/29 22:50:57;;;;;;;18.17;11.10;;;;;;;;;;10461735;28;20029;-83
2021/10/29 22:55:57;;;;;;;21.23;11.70;;;;;;;;;;10460553;28;20037;-82
2021/10/29 23:00:58;;;;;;;19.38;11.23;;;;;;;;;;10460754;28;20040;-83
2021/10/29 23:05:59;;;;;;;22.57;11.73;;;;;;;;;;10460812;28;20025;-82
2021/10/29 23:11:00;;;;;;;19.38;11.50;;;;;;;;;;10461112;28;20025;-82
2021/10/29 23:16:00;;;;;;;22.10;11.68;;;;;;;;;;10460429;28;20486;-82
2021/10/29 23:21:00;;;;;;;17.67;11.23;;;;;;;;;;10459095;28;20045;-82
2021/10/29 23:26:01;;;;;;;16.13;11.48;;;;;;;;;;10458764;28;20458;-85
2021/10/29 23:31:01;;;;;;;20.87;11.23;;;;;;;;;;10463094;28;20033;-84
2021/10/29 23:36:03;;;;;;;21.48;11.23;;;;;;;;;;10463401;28;20835;-85
2021/10/29 23:41:03;;;;;;;17.35;10.38;;;;;;;;;;10449348;28;20040;-85
2021/10/29 23:46:03;;;;;;;17.95;10.65;;;;;;;;;;10460440;28;20051;-83
2021/10/29 23:51:04;;;;;;;14.87;11.10;;;;;;;;;;10460097;28;20546;-83
2021/10/29 23:56:04;;;;;;;15.77;11.00;;;;;;;;;;10458839;28;20033;-83
